Fruitland, IA

1:29 PM CDT on August 28, 2016 (GMT -0500)
Muscatine Municipal

Weather History for KMUT - February, 2013

Change the Weather History Date:

Monday, February 25, 2013

  Actual Average Record
Temperature  
Mean Temperature 29 °F -  
Max Temperature 41 °F 39 °F 63 °F (1976)
Min Temperature 17 °F 21 °F -11 °F (1967)
Degree Days  
Heating Degree Days 36    
Moisture  
Dew Point 22 °F    
Average Humidity 72    
Maximum Humidity 86    
Minimum Humidity 56    
Precipitation  
Precipitation 0.00 in - - ()
Sea Level Pressure  
Sea Level Pressure 30.04 in    
Wind  
Wind Speed 3 mph (ENE)    
Max Wind Speed 14 mph    
Max Gust Speed -    
Visibility 7 miles    
Events      
Averages and records for this station are not official NWS values.
T = Trace of Precipitation, MM = Missing Value Source: NWS Daily Summary

Daily Weather History Graph

Daily Weather History Graph

Search for Another Location

Airport or City:

Trip Planner

Search our weather history database for the weather conditions in past years. The results will help you decide how hot, cold, wet, or windy it might be!

Date:

Astronomy

Feb. 25, 2013 Rise Set
Actual Time 6:44 AM CST 5:50 PM CST
Civil Twilight 6:16 AM CST 6:18 PM CST
Nautical Twilight 5:44 AM CST 6:50 PM CST
Astronomical Twilight 5:12 AM CST 7:22 PM CST
Moon 6:05 PM CST (2/25) 6:14 AM CST (2/25)
Length of Visible Light 12h 01m
Length of Day
11h 06m
Full, 100% of the Moon is Illuminated
Feb 25
Full
Feb 25
Full
Mar 4
Last Quarter
Mar 11
New
Mar 19
First Quarter

Hourly Weather History & Observations

Time (CST) Temp. Windchill Dew Point Humidity Pressure Visibility Wind Dir Wind Speed Gust Speed Precip Events Conditions
12:15 AM 19.4 °F - 15.8 °F 86% 30.11 in 5.0 mi Calm Calm - N/A   Clear
12:35 AM 19.4 °F - 15.8 °F 86% 30.11 in 5.0 mi Calm Calm - N/A   Haze
12:55 AM 19.4 °F - 15.8 °F 86% 30.11 in 2.5 mi Calm Calm - N/A   Haze
1:15 AM 19.4 °F - 15.8 °F 86% 30.11 in 5.0 mi Calm Calm - N/A   Mostly Cloudy
1:35 AM 19.4 °F - 15.8 °F 86% 30.10 in 5.0 mi Calm Calm - N/A   Haze
1:55 AM 21.2 °F - 15.8 °F 80% 30.09 in 5.0 mi Calm Calm - N/A   Haze
2:15 AM 17.6 °F - 14.0 °F 86% 30.09 in 4.0 mi Calm Calm - N/A   Clear
2:35 AM 17.6 °F - 12.2 °F 79% 30.10 in 4.0 mi Calm Calm - N/A   Clear
2:55 AM 17.6 °F - 12.2 °F 79% 30.10 in 4.0 mi Calm Calm - N/A   Clear
3:15 AM 17.6 °F - 12.2 °F 79% 30.10 in 2.5 mi Calm Calm - N/A   Haze
3:35 AM 17.6 °F - 12.2 °F 79% 30.10 in 7.0 mi Calm Calm - N/A   Mostly Cloudy
3:55 AM 17.6 °F - 14.0 °F 86% 30.09 in 5.0 mi Calm Calm - N/A   Scattered Clouds
4:15 AM 19.4 °F - 15.8 °F 86% 30.09 in 4.0 mi Calm Calm - N/A   Haze
4:35 AM 19.4 °F - 14.0 °F 80% 30.11 in 5.0 mi Calm Calm - N/A   Haze
4:55 AM 19.4 °F - 15.8 °F 86% 30.10 in 5.0 mi Calm Calm - N/A   Haze
5:15 AM 19.4 °F - 14.0 °F 80% 30.11 in 4.0 mi Calm Calm - N/A   Haze
5:35 AM 19.4 °F - 14.0 °F 80% 30.10 in 4.0 mi Calm Calm - N/A   Haze
5:55 AM 19.4 °F - 15.8 °F 86% 30.09 in 4.0 mi Calm Calm - N/A   Haze
6:15 AM 17.6 °F - 12.2 °F 79% 30.09 in 4.0 mi Calm Calm - N/A   Haze
6:35 AM 17.6 °F - 12.2 °F 79% 30.09 in 2.5 mi Calm Calm - N/A   Haze
6:55 AM 17.6 °F - 12.2 °F 79% 30.10 in 3.0 mi Calm Calm - N/A   Haze
7:15 AM 17.6 °F - 12.2 °F 79% 30.10 in 1.5 mi Calm Calm - N/A   Haze
7:35 AM 19.4 °F - 15.8 °F 86% 30.11 in 2.0 mi Calm Calm - N/A   Haze
7:55 AM 21.2 °F - 17.6 °F 86% 30.11 in 2.0 mi Calm Calm - N/A   Haze
8:15 AM 24.8 °F - 19.4 °F 80% 30.11 in 2.0 mi Calm Calm - N/A   Haze
8:35 AM 28.4 °F - 23.0 °F 80% 30.11 in 5.0 mi Calm Calm - N/A   Haze
8:55 AM 30.2 °F - 23.0 °F 75% 30.10 in 7.0 mi Calm Calm - N/A   Clear
9:15 AM 32.0 °F 27.5 °F 21.2 °F 64% 30.09 in 7.0 mi East 4.6 mph - N/A   Clear
9:35 AM 33.8 °F - 23.0 °F 65% 30.09 in 7.0 mi Calm Calm - N/A   Clear
9:55 AM 33.8 °F 29.6 °F 24.8 °F 70% 30.11 in 7.0 mi East 4.6 mph - N/A   Clear
10:15 AM 35.6 °F - 24.8 °F 65% 30.11 in 10.0 mi Calm Calm - N/A   Clear
10:35 AM 37.4 °F - 24.8 °F 60% 30.11 in 10.0 mi Calm Calm - N/A   Clear
10:55 AM 37.4 °F 34.9 °F 24.8 °F 60% 30.09 in 10.0 mi SE 3.5 mph - N/A   Clear
11:15 AM 37.4 °F 32.8 °F 24.8 °F 60% 30.09 in 10.0 mi East 5.8 mph - N/A   Clear
11:35 AM 37.4 °F 32.1 °F 24.8 °F 60% 30.09 in 10.0 mi East 6.9 mph - N/A   Clear
11:55 AM 39.2 °F 35.9 °F 24.8 °F 56% 30.09 in 10.0 mi East 4.6 mph - N/A   Clear
12:15 PM 39.2 °F 35.0 °F 24.8 °F 56% 30.09 in 10.0 mi East 5.8 mph - N/A   Scattered Clouds
12:35 PM 39.2 °F 35.0 °F 24.8 °F 56% 30.08 in 10.0 mi ENE 5.8 mph - N/A   Scattered Clouds
12:55 PM 39.2 °F 33.6 °F 24.8 °F 56% 30.07 in 10.0 mi NE 8.1 mph - N/A   Clear
1:15 PM 39.2 °F 33.0 °F 24.8 °F 56% 30.06 in 10.0 mi ENE 9.2 mph - N/A   Clear
1:35 PM 39.2 °F 33.0 °F 26.6 °F 61% 30.06 in 10.0 mi East 9.2 mph - N/A   Clear
1:55 PM 41.0 °F 36.4 °F 26.6 °F 57% 30.05 in 10.0 mi ENE 6.9 mph - N/A   Clear
2:15 PM 39.2 °F 35.0 °F 24.8 °F 56% 30.04 in 10.0 mi East 5.8 mph - N/A   Clear
2:35 PM 39.2 °F 34.2 °F 24.8 °F 56% 30.03 in 10.0 mi East 6.9 mph - N/A   Clear
2:55 PM 39.2 °F 34.2 °F 26.6 °F 61% 30.02 in 10.0 mi NE 6.9 mph - N/A   Clear
3:15 PM 39.2 °F 33.6 °F 26.6 °F 61% 30.02 in 10.0 mi NE 8.1 mph - N/A   Clear
3:35 PM 39.2 °F 34.2 °F 26.6 °F 61% 30.01 in 10.0 mi ENE 6.9 mph - N/A   Clear
3:55 PM 39.2 °F 33.6 °F 24.8 °F 56% 30.01 in 10.0 mi East 8.1 mph - N/A   Clear
4:15 PM 39.2 °F 34.2 °F 26.6 °F 61% 30.00 in 10.0 mi ENE 6.9 mph - N/A   Clear
4:35 PM 37.4 °F 32.8 °F 26.6 °F 65% 30.00 in 10.0 mi NE 5.8 mph - N/A   Clear
4:55 PM 35.6 °F 29.9 °F 28.4 °F 75% 29.99 in 7.0 mi NE 6.9 mph - N/A   Clear
5:15 PM 35.6 °F 30.7 °F 28.4 °F 75% 29.99 in 7.0 mi NNE 5.8 mph - N/A   Clear
5:35 PM 35.6 °F 28.6 °F 28.4 °F 75% 29.99 in 7.0 mi NE 9.2 mph - N/A   Clear
5:55 PM 35.6 °F 28.6 °F 26.6 °F 70% 29.98 in 7.0 mi NNE 9.2 mph - N/A   Clear
6:15 PM 33.8 °F 27.0 °F 26.6 °F 75% 29.99 in 7.0 mi NE 8.1 mph - N/A   Clear
6:35 PM 33.8 °F 27.0 °F 26.6 °F 75% 29.99 in 7.0 mi NE 8.1 mph - N/A   Clear
6:55 PM 33.8 °F 26.4 °F 26.6 °F 75% 29.99 in 10.0 mi NE 9.2 mph - N/A   Clear
7:15 PM 33.8 °F 26.4 °F 26.6 °F 75% 29.98 in 10.0 mi NE 9.2 mph - N/A   Clear
7:35 PM 33.8 °F 27.7 °F 26.6 °F 75% 29.99 in 10.0 mi NE 6.9 mph - N/A   Clear
7:55 PM 33.8 °F 27.7 °F 26.6 °F 75% 29.99 in 7.0 mi NE 6.9 mph - N/A   Clear
8:15 PM 33.8 °F 25.8 °F 26.6 °F 75% 29.97 in 7.0 mi NE 10.4 mph - N/A   Scattered Clouds
8:35 PM 33.8 °F 25.8 °F 26.6 °F 75% 29.97 in 7.0 mi ENE 10.4 mph - N/A   Scattered Clouds
8:55 PM 33.8 °F 25.8 °F 26.6 °F 75% 29.97 in 7.0 mi NE 10.4 mph - N/A   Scattered Clouds
9:15 PM 35.6 °F 27.5 °F 26.6 °F 70% 29.97 in 7.0 mi ENE 11.5 mph - N/A   Mostly Cloudy
9:35 PM 35.6 °F 28.6 °F 26.6 °F 70% 29.96 in 7.0 mi East 9.2 mph - N/A   Mostly Cloudy
9:55 PM 35.6 °F 27.1 °F 26.6 °F 70% 29.94 in 10.0 mi ENE 12.7 mph - N/A   Overcast
10:15 PM 35.6 °F 26.6 °F 24.8 °F 65% 29.93 in 10.0 mi ENE 13.8 mph - N/A   Overcast
10:35 PM 35.6 °F 27.1 °F 24.8 °F 65% 29.91 in 7.0 mi ENE 12.7 mph - N/A   Scattered Clouds
10:55 PM 35.6 °F 27.5 °F 24.8 °F 65% 29.91 in 7.0 mi ENE 11.5 mph - N/A   Clear
11:15 PM 35.6 °F 28.0 °F 24.8 °F 65% 29.90 in 7.0 mi NE 10.4 mph - N/A   Clear
11:35 PM 35.6 °F 28.0 °F 24.8 °F 65% 29.89 in 7.0 mi ENE 10.4 mph - N/A   Scattered Clouds
11:55 PM 35.6 °F 28.0 °F 24.8 °F 65% 29.88 in 7.0 mi ENE 10.4 mph - N/A   Scattered Clouds